createdAt,value
2023-02-21T00:00:17.051Z,-23363.66
2023-02-21T00:02:37.534Z,-23367.34
2023-02-21T00:04:57.859Z,-23361.28
2023-02-21T00:07:18.100Z,-23364.00
2023-02-21T00:09:38.391Z,-23373.22
2023-02-21T00:12:01.034Z,-23367.81
2023-02-21T00:14:21.601Z,-23366.22
2023-02-21T00:16:43.557Z,-23361.59
2023-02-21T00:19:03.942Z,-23362.56
2023-02-21T00:21:25.142Z,-23360.16
2023-02-21T00:23:45.189Z,-23358.25
2023-02-21T00:26:05.603Z,-23361.13
2023-02-21T00:28:26.127Z,-23358.25
2023-02-21T00:30:46.579Z,-23362.25
2023-02-21T00:33:08.112Z,-23360.16
2023-02-21T00:35:28.791Z,-23356.19
2023-02-21T00:37:49.286Z,-23356.50
2023-02-21T00:40:09.884Z,-23360.16
2023-02-21T00:42:30.492Z,-23361.75
2023-02-21T00:44:50.964Z,-23359.22
2023-02-21T00:47:11.172Z,-23355.56
2023-02-21T00:49:32.882Z,-23350.31
2023-02-21T00:51:53.219Z,-23358.91
2023-02-21T00:54:13.742Z,-23362.06
2023-02-21T00:56:34.149Z,-23371.00
2023-02-21T00:58:54.522Z,-23369.72
2023-02-21T01:01:15.347Z,-23369.06
2023-02-21T01:03:36.092Z,-23373.84
2023-02-21T01:05:57.834Z,-23369.72
2023-02-21T01:08:18.192Z,-23370.34
2023-02-21T01:10:38.587Z,-23367.81
2023-02-21T01:12:58.896Z,-23364.47
2023-02-21T01:15:19.298Z,-23361.44
2023-02-21T01:17:39.758Z,-23362.41
2023-02-21T01:20:01.309Z,-23357.00
2023-02-21T01:22:23.419Z,-23365.56
2023-02-21T01:24:43.909Z,-23373.53
2023-02-21T01:27:04.507Z,-23375.75
2023-02-21T01:29:24.664Z,-23370.81
2023-02-21T01:31:45.305Z,-23369.41
2023-02-21T01:34:05.875Z,-23367.81
2023-02-21T01:36:26.867Z,-23360.81
2023-02-21T01:38:52.031Z,-23365.91
2023-02-21T01:41:12.411Z,-23364.63
2023-02-21T01:43:34.091Z,-23360.81
2023-02-21T01:46:05.640Z,-23359.84
2023-02-21T01:48:27.619Z,-23357.94
2023-02-21T01:50:50.174Z,-23359.38
2023-02-21T01:53:11.110Z,-23363.34
2023-02-21T01:55:32.844Z,-23355.09
2023-02-21T01:57:54.142Z,-23371.47
2023-02-21T02:00:16.561Z,-23364.63
2023-02-21T02:02:42.593Z,-23369.72
2023-02-21T02:05:05.681Z,-23364.00
2023-02-21T02:07:26.120Z,-23361.44
2023-02-21T02:09:46.544Z,-23364.00
2023-02-21T02:12:21.216Z,-23365.56
2023-02-21T02:14:59.973Z,-23367.50
2023-02-21T02:17:09.247Z,-23371.16
2023-02-21T02:19:42.120Z,-23370.03
2023-02-21T02:22:19.447Z,-23367.66
2023-02-21T02:24:53.893Z,-23373.69
2023-02-21T02:27:43.542Z,-23379.56
2023-02-21T02:30:25.794Z,-23377.50
2023-02-21T02:32:51.138Z,-23377.50
2023-02-21T02:35:01.817Z,-23374.50
2023-02-21T02:37:13.351Z,-23377.66
2023-02-21T02:39:25.162Z,-23380.53
2023-02-21T02:41:39.447Z,-23379.56
2023-02-21T02:43:50.332Z,-23379.88
2023-02-21T02:45:57.673Z,-23376.56
2023-02-21T02:48:07.246Z,-23377.66
2023-02-21T02:50:12.965Z,-23377.97
2023-02-21T02:52:15.581Z,-23375.13
2023-02-21T02:54:18.316Z,-23373.38
2023-02-21T02:56:23.589Z,-23371.16
2023-02-21T02:58:29.240Z,-23368.91
2023-02-21T03:00:34.237Z,-23368.44
2023-02-21T03:02:52.683Z,-23369.41
2023-02-21T03:05:29.313Z,-23369.06
2023-02-21T03:07:41.761Z,-23367.81
2023-02-21T03:09:55.735Z,-23366.22
2023-02-21T03:12:06.689Z,-23362.72
2023-02-21T03:14:15.914Z,-23360.81
2023-02-21T03:16:26.141Z,-23359.69
2023-02-21T03:18:35.801Z,-23358.25
2023-02-21T03:20:42.401Z,-23359.38
2023-02-21T03:22:47.567Z,-23356.50
2023-02-21T03:24:51.317Z,-23366.69
2023-02-21T03:26:58.087Z,-23365.09
2023-02-21T03:29:00.571Z,-23363.34
2023-02-21T03:31:05.712Z,-23363.66
2023-02-21T03:33:08.537Z,-23360.34
2023-02-21T03:35:11.442Z,-23358.59
2023-02-21T03:37:29.578Z,-23356.84
2023-02-21T03:39:32.356Z,-23355.88
2023-02-21T03:41:35.016Z,-23355.09
2023-02-21T03:43:37.683Z,-23353.34
2023-02-21T03:45:40.370Z,-23352.53
2023-02-21T03:47:43.033Z,-23353.19
2023-02-21T03:49:45.750Z,-23350.31
2023-02-21T03:51:48.531Z,-23349.34
2023-02-21T03:53:52.514Z,-23348.09
2023-02-21T03:55:55.220Z,-23347.44
2023-02-21T03:57:57.890Z,-23344.41
2023-02-21T04:00:00.705Z,-23344.91
2023-02-21T04:02:03.552Z,-23343.94
2023-02-21T04:04:06.321Z,-23345.53
2023-02-21T04:06:08.994Z,-23343.94
2023-02-21T04:08:11.632Z,-23344.91
2023-02-21T04:10:16.080Z,-23343.00
2023-02-21T04:12:18.701Z,-23343.00
2023-02-21T04:14:21.532Z,-23343.47
2023-02-21T04:16:24.454Z,-23344.91
2023-02-21T04:18:27.296Z,-23345.22
2023-02-21T04:20:30.130Z,-23343.94
2023-02-21T04:22:33.080Z,-23330.75
2023-02-21T04:24:35.766Z,-23343.94
2023-02-21T04:26:39.942Z,-23345.84
2023-02-21T04:28:42.603Z,-23347.75
2023-02-21T04:30:45.323Z,-23344.41
2023-02-21T04:32:47.966Z,-23342.66
2023-02-21T04:34:50.612Z,-23342.34
2023-02-21T04:36:53.401Z,-23342.34
2023-02-21T04:38:56.202Z,-23342.66
2023-02-21T04:40:58.899Z,-23337.91
2023-02-21T04:43:02.927Z,-23339.16
2023-02-21T04:45:05.848Z,-23343.31
2023-02-21T04:47:08.505Z,-23341.25
2023-02-21T04:49:13.059Z,-23340.44
2023-02-21T04:51:18.846Z,-23335.66
2023-02-21T04:53:21.690Z,-23334.06
2023-02-21T04:55:24.353Z,-23331.53
2023-02-21T04:57:26.908Z,-23326.59
2023-02-21T04:59:30.868Z,-23328.03
2023-02-21T05:01:36.413Z,-23333.13
2023-02-21T05:03:39.044Z,-23328.34
2023-02-21T05:05:41.619Z,-23330.25
2023-02-21T05:07:44.318Z,-23329.63
2023-02-21T05:09:46.959Z,-23321.34
2023-02-21T05:11:49.683Z,-23317.38
2023-02-21T05:13:53.040Z,-23317.69
2023-02-21T05:15:56.962Z,-23321.03
2023-02-21T05:17:59.619Z,-23322.94
2023-02-21T05:20:02.602Z,-23325.63
2023-02-21T05:22:07.124Z,-23322.63
2023-02-21T05:24:10.314Z,-23319.28
2023-02-21T05:26:14.586Z,-23322.31
2023-02-21T05:28:17.225Z,-23317.38
2023-02-21T05:30:22.428Z,-23313.06
2023-02-21T05:32:29.519Z,-23310.84
2023-02-21T05:34:32.195Z,-23303.50
2023-02-21T05:36:35.007Z,-23301.28
2023-02-21T05:38:45.487Z,-23303.81
2023-02-21T05:40:49.008Z,-23306.22
2023-02-21T05:42:51.667Z,-23302.72
2023-02-21T05:44:54.435Z,-23300.97
2023-02-21T05:46:57.061Z,-23303.81
2023-02-21T05:49:02.630Z,-23299.38
2023-02-21T05:51:05.438Z,-23298.88
2023-02-21T05:53:10.160Z,-23299.38
2023-02-21T05:55:12.931Z,-23301.91
2023-02-21T05:57:15.556Z,-23307.66
2023-02-21T05:59:20.352Z,-23299.03
2023-02-21T06:01:22.941Z,-23301.28
2023-02-21T06:03:25.673Z,-23300.31
2023-02-21T06:05:29.647Z,-23302.56
2023-02-21T06:07:32.278Z,-23302.88
2023-02-21T06:09:35.005Z,-23301.91
2023-02-21T06:11:40.272Z,-23308.59
2023-02-21T06:13:43.733Z,-23296.03
2023-02-21T06:15:46.460Z,-23287.56
2023-02-21T06:17:49.158Z,-23295.88
2023-02-21T06:19:51.783Z,-23295.88
2023-02-21T06:21:55.751Z,-23304.78
2023-02-21T06:23:58.496Z,-23304.78
2023-02-21T06:26:01.108Z,-23306.69
2023-02-21T06:28:03.938Z,-23305.41
2023-02-21T06:30:07.772Z,-23309.25
2023-02-21T06:32:10.637Z,-23309.56
2023-02-21T06:34:13.513Z,-23309.88
2023-02-21T06:36:19.028Z,-23310.50
2023-02-21T06:38:23.063Z,-23314.03
2023-02-21T06:40:25.749Z,-23317.38
2023-02-21T06:42:30.008Z,-23320.38
2023-02-21T06:44:32.698Z,-23325.47
2023-02-21T06:46:37.053Z,-23332.81
2023-02-21T06:48:39.696Z,-23333.75
2023-02-21T06:50:42.293Z,-23335.03
2023-02-21T06:52:45.054Z,-23330.88
2023-02-21T06:54:50.898Z,-23327.38
2023-02-21T06:56:53.507Z,-23329.31
2023-02-21T06:58:56.281Z,-23329.94
2023-02-21T07:00:58.934Z,-23329.94
2023-02-21T07:03:01.592Z,-23329.94
2023-02-21T07:05:04.282Z,-23329.94
2023-02-21T07:07:06.987Z,-23329.63
2023-02-21T07:09:09.719Z,-23327.06
2023-02-21T07:11:14.722Z,-23328.66
2023-02-21T07:13:17.610Z,-23336.63
2023-02-21T07:15:20.310Z,-23337.56
2023-02-21T07:17:22.978Z,-23344.91
2023-02-21T07:19:25.668Z,-23350.00
2023-02-21T07:21:28.681Z,-23346.97
2023-02-21T07:23:31.350Z,-23352.38
2023-02-21T07:25:33.944Z,-23354.94
2023-02-21T07:27:37.994Z,-23361.75
2023-02-21T07:29:40.606Z,-23364.00
2023-02-21T07:31:43.416Z,-23370.34
2023-02-21T07:33:46.170Z,-23370.34
2023-02-21T07:35:49.645Z,-23370.34
2023-02-21T07:37:52.494Z,-23371.31
2023-02-21T07:39:55.131Z,-23371.31
2023-02-21T07:41:57.758Z,-23373.53
2023-02-21T07:44:01.755Z,-23377.34
2023-02-21T07:46:04.483Z,-23379.25
2023-02-21T07:48:07.435Z,-23384.34
2023-02-21T07:50:10.573Z,-23387.84
2023-02-21T07:52:13.233Z,-23386.88
2023-02-21T07:54:16.661Z,-23384.66
2023-02-21T07:56:19.343Z,-23393.09
2023-02-21T07:58:22.182Z,-23405.00
2023-02-21T08:00:26.399Z,-23409.13
2023-02-21T08:02:29.277Z,-23419.13
2023-02-21T08:04:31.987Z,-23425.63
2023-02-21T08:06:35.854Z,-23427.72
2023-02-21T08:08:38.458Z,-23415.78
2023-02-21T08:10:41.184Z,-23412.13
2023-02-21T08:12:43.846Z,-23419.13
2023-02-21T08:14:46.436Z,-23447.38
2023-02-21T08:16:50.539Z,-23485.28
2023-02-21T08:18:53.290Z,-23497.81
2023-02-21T08:20:57.315Z,-23515.06
2023-02-21T08:23:00.201Z,-23535.03
2023-02-21T08:25:02.952Z,-23539.00
2023-02-21T08:27:05.604Z,-23531.84
2023-02-21T08:29:08.772Z,-23518.25
2023-02-21T08:31:11.462Z,-23531.38
2023-02-21T08:33:15.483Z,-23530.28
2023-02-21T08:35:20.342Z,-23554.03
2023-02-21T08:37:22.948Z,-23604.91
2023-02-21T08:39:27.522Z,-23632.88
2023-02-21T08:41:36.595Z,-23562.72
2023-02-21T08:43:39.260Z,-23580.28
2023-02-21T08:45:41.965Z,-23568.25
2023-02-21T08:47:44.837Z,-23577.41
2023-02-21T08:49:49.907Z,-23593.84
2023-02-21T08:51:52.522Z,-23536.94
2023-02-21T08:53:55.190Z,-23569.84
2023-02-21T08:55:57.799Z,-23576.47
2023-02-21T08:58:00.959Z,-23643.75
2023-02-21T09:00:06.637Z,-23666.16
2023-02-21T09:02:17.036Z,-23583.44
2023-02-21T09:04:19.765Z,-23565.09
2023-02-21T09:06:23.799Z,-23562.25
2023-02-21T09:08:28.527Z,-23586.75
2023-02-21T09:10:34.362Z,-23572.03
2023-02-21T09:12:37.223Z,-23584.84
2023-02-21T09:14:41.621Z,-23585.97
2023-02-21T09:16:47.634Z,-23597.00
2023-02-21T09:18:58.993Z,-23631.75
2023-02-21T09:21:01.992Z,-23614.72
2023-02-21T09:23:06.103Z,-23615.34
2023-02-21T09:25:12.914Z,-23615.97
2023-02-21T09:27:17.662Z,-23637.13
2023-02-21T09:29:20.302Z,-23619.75
2023-02-21T09:31:22.978Z,-23584.38
2023-02-21T09:33:25.759Z,-23630.50
2023-02-21T09:35:31.075Z,-23636.97
2023-02-21T09:37:33.845Z,-23668.97
2023-02-21T09:39:40.338Z,-23683.78
2023-02-21T09:41:44.357Z,-23643.13
2023-02-21T09:43:49.707Z,-23695.94
2023-02-21T09:45:55.027Z,-23682.53
2023-02-21T09:48:02.476Z,-23709.63
2023-02-21T09:50:08.082Z,-23662.53
2023-02-21T09:52:22.898Z,-23686.00
2023-02-21T09:54:31.888Z,-23690.25
2023-02-21T09:56:40.251Z,-23694.81
2023-02-21T09:58:45.157Z,-23695.63
2023-02-21T10:00:48.428Z,-23733.22
2023-02-21T10:03:00.332Z,-23667.56
2023-02-21T10:05:14.894Z,-23694.50
2023-02-21T10:07:22.967Z,-23769.69
2023-02-21T10:09:37.023Z,-23720.50
2023-02-21T10:11:55.355Z,-23657.31
2023-02-21T10:14:07.261Z,-23710.56
2023-02-21T10:16:16.649Z,-23731.97
2023-02-21T10:18:28.124Z,-23701.59
2023-02-21T10:20:36.993Z,-23740.31
2023-02-21T10:22:41.830Z,-23805.50
2023-02-21T10:24:44.628Z,-23800.31
2023-02-21T10:26:54.824Z,-23764.03
2023-02-21T10:28:58.147Z,-23704.59
2023-02-21T10:31:04.104Z,-23705.84
2023-02-21T10:33:07.342Z,-23683.00
2023-02-21T10:35:10.197Z,-23666.16
2023-02-21T10:37:34.190Z,-23708.38
2023-02-21T10:39:43.742Z,-23691.69
2023-02-21T10:41:46.791Z,-23679.53
2023-02-21T10:43:55.117Z,-23693.09
2023-02-21T10:46:00.830Z,-23706.78
2023-02-21T10:48:06.553Z,-23708.38
2023-02-21T10:50:12.293Z,-23656.69
2023-02-21T10:52:17.510Z,-23711.66
2023-02-21T10:54:21.965Z,-23680.78
2023-02-21T10:56:29.221Z,-23679.69
2023-02-21T10:58:31.861Z,-23672.13
2023-02-21T11:00:38.056Z,-23684.13
2023-02-21T11:02:44.812Z,-23661.72
2023-02-21T11:04:48.103Z,-23664.09
2023-02-21T11:06:54.487Z,-23628.91
2023-02-21T11:08:57.939Z,-23627.66
2023-02-21T11:11:00.617Z,-23635.88
2023-02-21T11:13:14.588Z,-23627.03
2023-02-21T11:15:19.755Z,-23617.88
2023-02-21T11:17:24.797Z,-23627.03
2023-02-21T11:19:27.541Z,-23618.97
2023-02-21T11:21:30.345Z,-23619.13
2023-02-21T11:23:33.024Z,-23619.75
2023-02-21T11:25:40.903Z,-23610.75
2023-02-21T11:27:46.103Z,-23623.06
2023-02-21T11:29:51.305Z,-23618.81
2023-02-21T11:31:54.478Z,-23622.44
2023-02-21T11:34:00.869Z,-23623.41
2023-02-21T11:36:13.055Z,-23617.88
2023-02-21T11:38:32.741Z,-23622.44
2023-02-21T11:40:43.674Z,-23621.97
2023-02-21T11:42:46.374Z,-23625.44
2023-02-21T11:44:52.441Z,-23618.66
2023-02-21T11:47:05.054Z,-23623.06
2023-02-21T11:49:19.858Z,-23625.13
2023-02-21T11:51:36.031Z,-23623.72
2023-02-21T11:53:43.510Z,-23619.28
2023-02-21T11:55:58.127Z,-23627.34
2023-02-21T11:58:14.162Z,-23627.66
2023-02-21T12:00:27.123Z,-23635.38
2023-02-21T12:02:59.064Z,-23635.38
2023-02-21T12:05:15.385Z,-23629.25
2023-02-21T12:07:26.204Z,-23630.19
2023-02-21T12:09:36.514Z,-23631.75
2023-02-21T12:12:02.237Z,-23643.91
2023-02-21T12:14:16.664Z,-23643.13
2023-02-21T12:16:27.248Z,-23641.84
2023-02-21T12:18:42.385Z,-23634.75
2023-02-21T12:21:05.619Z,-23636.50
2023-02-21T12:23:16.981Z,-23653.06
2023-02-21T12:25:27.218Z,-23633.03
2023-02-21T12:27:39.140Z,-23644.06
2023-02-21T12:29:58.022Z,-23656.22
2023-02-21T12:32:22.167Z,-23655.91
2023-02-21T12:34:37.955Z,-23653.84
2023-02-21T12:36:58.847Z,-23676.84
2023-02-21T12:39:17.102Z,-23683.16
2023-02-21T12:41:27.154Z,-23700.81
2023-02-21T12:43:44.176Z,-23713.09
2023-02-21T12:45:57.029Z,-23709.94
2023-02-21T12:48:06.828Z,-23727.72
2023-02-21T12:50:18.044Z,-23712.47
2023-02-21T12:52:27.157Z,-23747.38
2023-02-21T12:54:40.879Z,-23716.53
2023-02-21T12:56:50.579Z,-23756.34
2023-02-21T12:59:00.628Z,-23735.44
2023-02-21T13:01:10.605Z,-23742.66
2023-02-21T13:03:27.743Z,-23744.41
2023-02-21T13:05:39.945Z,-23776.00
2023-02-21T13:07:47.725Z,-23749.28
2023-02-21T13:09:55.919Z,-23753.03
2023-02-21T13:12:05.113Z,-23733.84
2023-02-21T13:14:11.886Z,-23743.44
2023-02-21T13:16:18.476Z,-23733.06
2023-02-21T13:18:25.784Z,-23778.03
2023-02-21T13:20:32.769Z,-23780.22
2023-02-21T13:23:31.102Z,-23757.75
2023-02-21T13:25:47.467Z,-23717.81
2023-02-21T13:27:57.568Z,-23727.72
2023-02-21T13:30:11.995Z,-23764.50
2023-02-21T13:32:20.016Z,-23722.53
2023-02-21T13:34:26.160Z,-23757.13
2023-02-21T13:36:32.856Z,-23778.19
2023-02-21T13:38:35.848Z,-23755.88
2023-02-21T13:40:50.901Z,-23750.53
2023-02-21T13:43:03.715Z,-23755.25
2023-02-21T13:45:18.713Z,-23739.22
2023-02-21T13:47:24.099Z,-23776.31
2023-02-21T13:49:47.661Z,-23770.97
2023-02-21T13:51:53.113Z,-23724.44
2023-02-21T13:54:11.014Z,-23708.38
2023-02-21T13:56:18.352Z,-23688.53
2023-02-21T13:58:39.407Z,-23692.00
2023-02-21T14:00:54.614Z,-23739.53
2023-02-21T14:02:58.821Z,-23721.59
2023-02-21T14:05:05.851Z,-23731.19
2023-02-21T14:07:08.907Z,-23726.31
2023-02-21T14:09:15.895Z,-23721.28
2023-02-21T14:11:23.832Z,-23706.94
2023-02-21T14:13:34.840Z,-23728.34
2023-02-21T14:15:43.875Z,-23724.44
2023-02-21T14:17:48.988Z,-23704.28
2023-02-21T14:19:55.346Z,-23703.34
2023-02-21T14:22:04.057Z,-23687.25
2023-02-21T14:24:13.276Z,-23731.50
2023-02-21T14:26:40.794Z,-23704.28
2023-02-21T14:29:03.462Z,-23712.47
2023-02-21T14:31:06.118Z,-23714.50
2023-02-21T14:33:32.748Z,-23725.38
2023-02-21T14:35:38.530Z,-23732.59
2023-02-21T14:37:44.721Z,-23705.53
2023-02-21T14:39:50.788Z,-23679.06
2023-02-21T14:42:09.383Z,-23683.47
2023-02-21T14:44:27.089Z,-23693.88
2023-02-21T14:46:48.312Z,-23682.53
2023-02-21T14:49:10.080Z,-23700.81
2023-02-21T14:51:41.725Z,-23693.25
2023-02-21T14:54:17.889Z,-23699.25
2023-02-21T14:56:46.507Z,-23692.31
2023-02-21T14:59:07.939Z,-23676.22
2023-02-21T15:01:25.718Z,-23698.75
2023-02-21T15:03:33.860Z,-23702.38
2023-02-21T15:05:41.164Z,-23703.34
2023-02-21T15:07:57.034Z,-23703.00
2023-02-21T15:10:15.723Z,-23704.75
2023-02-21T15:12:19.309Z,-23700.34
2023-02-21T15:14:25.486Z,-23693.25
2023-02-21T15:16:32.938Z,-23689.78
2023-02-21T15:18:37.087Z,-23673.56
2023-02-21T15:20:40.960Z,-23675.13
2023-02-21T15:22:43.673Z,-23673.56
2023-02-21T15:25:14.554Z,-23671.03
2023-02-21T15:27:17.166Z,-23669.94
2023-02-21T15:29:19.875Z,-23668.03
2023-02-21T15:31:23.886Z,-23672.75
2023-02-21T15:33:28.007Z,-23668.34
2023-02-21T15:35:34.570Z,-23664.72
2023-02-21T15:37:40.104Z,-23662.69
2023-02-21T15:39:49.663Z,-23662.34
2023-02-21T15:41:59.738Z,-23659.69
2023-02-21T15:44:06.499Z,-23657.31
2023-02-21T15:46:13.161Z,-23657.00
2023-02-21T15:48:17.354Z,-23650.69
2023-02-21T15:50:31.296Z,-23654.00
2023-02-21T15:52:37.892Z,-23655.09
2023-02-21T15:54:40.569Z,-23649.91
2023-02-21T15:56:43.508Z,-23648.31
2023-02-21T15:59:09.539Z,-23647.22
2023-02-21T16:01:12.987Z,-23644.84
2023-02-21T16:03:33.970Z,-23635.88
2023-02-21T16:05:36.652Z,-23637.13
2023-02-21T16:07:41.228Z,-23635.22
2023-02-21T16:09:48.002Z,-23632.06
2023-02-21T16:11:54.094Z,-23630.19
2023-02-21T16:13:57.030Z,-23626.72
2023-02-21T16:16:01.572Z,-23628.91
2023-02-21T16:18:07.924Z,-23627.81
2023-02-21T16:20:17.730Z,-23623.41
2023-02-21T16:22:43.216Z,-23617.38
2023-02-21T16:24:50.551Z,-23611.88
2023-02-21T16:27:03.918Z,-23613.75
2023-02-21T16:29:06.829Z,-23608.22
2023-02-21T16:31:15.510Z,-23598.59
2023-02-21T16:33:18.324Z,-23605.38
2023-02-21T16:35:24.616Z,-23596.88
2023-02-21T16:37:28.068Z,-23598.28
2023-02-21T16:39:30.916Z,-23597.34
2023-02-21T16:41:33.562Z,-23595.59
2023-02-21T16:43:36.171Z,-23590.53
2023-02-21T16:45:42.798Z,-23585.97
2023-02-21T16:47:48.969Z,-23584.38
2023-02-21T16:49:52.978Z,-23581.22
2023-02-21T16:51:56.960Z,-23582.16
2023-02-21T16:53:59.538Z,-23578.69
2023-02-21T16:56:03.787Z,-23578.53
2023-02-21T16:58:12.366Z,-23577.72
2023-02-21T17:00:16.462Z,-23576.63
2023-02-21T17:02:19.229Z,-23571.41
2023-02-21T17:04:26.307Z,-23570.16
2023-02-21T17:06:29.680Z,-23570.00
2023-02-21T17:08:33.759Z,-23568.25
2023-02-21T17:10:36.533Z,-23566.34
2023-02-21T17:12:39.257Z,-23566.34
2023-02-21T17:14:41.968Z,-23566.97
2023-02-21T17:16:45.529Z,-23561.59
2023-02-21T17:18:48.146Z,-23564.47
2023-02-21T17:20:50.961Z,-23565.72
2023-02-21T17:22:54.645Z,-23561.78
2023-02-21T17:24:58.607Z,-23562.25
2023-02-21T17:27:01.684Z,-23558.75
2023-02-21T17:29:05.067Z,-23558.28
2023-02-21T17:31:08.074Z,-23556.22
2023-02-21T17:33:11.148Z,-23558.91
2023-02-21T17:35:14.762Z,-23557.50
2023-02-21T17:37:17.433Z,-23557.50
2023-02-21T17:39:21.449Z,-23555.91
2023-02-21T17:41:26.464Z,-23557.03
2023-02-21T17:43:29.130Z,-23557.81
2023-02-21T17:45:31.789Z,-23553.69
2023-02-21T17:47:35.314Z,-23552.91
2023-02-21T17:49:37.973Z,-23551.97
2023-02-21T17:51:40.682Z,-23549.59
2023-02-21T17:53:43.367Z,-23549.28
2023-02-21T17:55:46.041Z,-23549.13
2023-02-21T17:57:50.331Z,-23550.69
2023-02-21T17:59:52.994Z,-23546.75
2023-02-21T18:01:56.285Z,-23542.94
2023-02-21T18:04:01.125Z,-23544.06
2023-02-21T18:06:03.774Z,-23542.94
2023-02-21T18:08:06.602Z,-23545.31
2023-02-21T18:10:09.565Z,-23542.94
2023-02-21T18:12:12.162Z,-23542.31
2023-02-21T18:14:16.356Z,-23541.84
2023-02-21T18:16:19.675Z,-23537.56
2023-02-21T18:18:22.321Z,-23536.28
2023-02-21T18:20:25.007Z,-23539.31
2023-02-21T18:22:27.759Z,-23540.56
2023-02-21T18:24:30.748Z,-23539.78
2023-02-21T18:26:33.368Z,-23541.03
2023-02-21T18:28:36.058Z,-23537.56
2023-02-21T18:30:40.068Z,-23536.44
2023-02-21T18:32:42.851Z,-23535.66
2023-02-21T18:34:45.535Z,-23534.22
2023-02-21T18:36:49.745Z,-23531.84
2023-02-21T18:38:52.366Z,-23530.44
2023-02-21T18:40:55.235Z,-23526.47
2023-02-21T18:42:57.877Z,-23526.47
2023-02-21T18:45:00.664Z,-23525.84
2023-02-21T18:47:04.740Z,-23524.56
2023-02-21T18:49:07.600Z,-23523.63
2023-02-21T18:51:11.281Z,-23523.47
2023-02-21T18:53:14.244Z,-23521.25
2023-02-21T18:55:18.353Z,-23522.03
2023-02-21T18:57:22.962Z,-23523.31
2023-02-21T18:59:26.287Z,-23523.78
2023-02-21T19:01:28.983Z,-23525.84
2023-02-21T19:03:33.571Z,-23522.38
2023-02-21T19:05:36.374Z,-23527.91
2023-02-21T19:07:39.011Z,-23526.16
2023-02-21T19:09:41.934Z,-23525.38
2023-02-21T19:11:44.573Z,-23524.09
2023-02-21T19:13:49.852Z,-23525.06
2023-02-21T19:15:52.773Z,-23522.84
2023-02-21T19:17:55.373Z,-23516.34
2023-02-21T19:19:59.512Z,-23513.97
2023-02-21T19:22:02.164Z,-23510.81
2023-02-21T19:24:05.179Z,-23513.34
2023-02-21T19:26:08.620Z,-23511.91
2023-02-21T19:28:11.267Z,-23513.03
2023-02-21T19:30:15.166Z,-23513.03
2023-02-21T19:32:19.054Z,-23510.31
2023-02-21T19:34:21.780Z,-23513.50
2023-02-21T19:36:25.862Z,-23512.84
2023-02-21T19:38:28.498Z,-23509.84
2023-02-21T19:40:32.346Z,-23507.78
2023-02-21T19:42:35.462Z,-23507.00
2023-02-21T19:44:38.297Z,-23507.16
2023-02-21T19:46:41.196Z,-23507.31
2023-02-21T19:48:43.823Z,-23504.63
2023-02-21T19:50:46.645Z,-23504.16
2023-02-21T19:52:56.087Z,-23499.88
2023-02-21T19:54:58.771Z,-23500.66
2023-02-21T19:57:01.449Z,-23501.28
2023-02-21T19:59:04.456Z,-23499.56
2023-02-21T20:01:07.375Z,-23496.88
2023-02-21T20:03:10.095Z,-23497.66
2023-02-21T20:05:14.035Z,-23497.66
2023-02-21T20:07:20.631Z,-23497.81
2023-02-21T20:09:24.724Z,-23497.03
2023-02-21T20:11:27.471Z,-23495.75
2023-02-21T20:13:30.069Z,-23496.06
2023-02-21T20:15:34.442Z,-23495.44
2023-02-21T20:17:37.726Z,-23494.16
2023-02-21T20:19:40.338Z,-23493.84
2023-02-21T20:21:43.132Z,-23494.66
2023-02-21T20:23:45.899Z,-23493.22
2023-02-21T20:25:50.316Z,-23491.63
2023-02-21T20:27:52.994Z,-23491.31
2023-02-21T20:29:55.829Z,-23491.63
2023-02-21T20:31:59.951Z,-23490.38
2023-02-21T20:34:03.607Z,-23487.84
2023-02-21T20:36:07.801Z,-23488.78
2023-02-21T20:38:11.029Z,-23486.88
2023-02-21T20:40:15.816Z,-23485.75
2023-02-21T20:42:22.674Z,-23486.25
2023-02-21T20:44:25.841Z,-23485.91
2023-02-21T20:46:29.447Z,-23484.66
2023-02-21T20:48:32.284Z,-23484.50
2023-02-21T20:50:34.966Z,-23483.84
2023-02-21T20:52:39.343Z,-23482.59
2023-02-21T20:54:44.090Z,-23481.81
2023-02-21T20:56:48.642Z,-23481.16
2023-02-21T20:58:52.634Z,-23481.81
2023-02-21T21:00:55.305Z,-23480.84
2023-02-21T21:02:59.075Z,-23480.22
2023-02-21T21:05:01.778Z,-23473.25
2023-02-21T21:07:06.493Z,-23476.41
2023-02-21T21:09:09.316Z,-23470.38
2023-02-21T21:11:11.990Z,-23471.03
2023-02-21T21:13:14.762Z,-23470.38
2023-02-21T21:15:20.043Z,-23471.03
2023-02-21T21:17:23.001Z,-23471.81
2023-02-21T21:19:26.374Z,-23472.13
2023-02-21T21:21:29.794Z,-23468.16
2023-02-21T21:23:32.496Z,-23466.25
2023-02-21T21:25:35.473Z,-23465.16
2023-02-21T21:27:38.384Z,-23464.69
2023-02-21T21:29:43.144Z,-23461.19
2023-02-21T21:31:50.465Z,-23464.19
2023-02-21T21:33:56.328Z,-23459.91
2023-02-21T21:35:59.376Z,-23460.56
2023-02-21T21:38:02.933Z,-23458.97
2023-02-21T21:40:15.973Z,-23456.13
2023-02-21T21:42:19.013Z,-23458.34
2023-02-21T21:44:23.141Z,-23458.34
2023-02-21T21:46:25.778Z,-23453.56
2023-02-21T21:48:29.953Z,-23453.72
2023-02-21T21:50:32.638Z,-23454.84
2023-02-21T21:52:35.409Z,-23455.47
2023-02-21T21:54:40.464Z,-23454.84
2023-02-21T21:56:43.631Z,-23454.53
2023-02-21T21:58:46.311Z,-23452.31
2023-02-21T22:00:49.023Z,-23450.25
2023-02-21T22:02:57.003Z,-23448.66
2023-02-21T22:05:01.245Z,-23447.53
2023-02-21T22:07:04.934Z,-23446.91
2023-02-21T22:09:08.415Z,-23444.84
2023-02-21T22:11:11.081Z,-23443.41
2023-02-21T22:13:14.641Z,-23441.84
2023-02-21T22:15:19.626Z,-23440.88
2023-02-21T22:17:22.921Z,-23439.47
2023-02-21T22:19:27.394Z,-23439.13
2023-02-21T22:21:31.825Z,-23437.72
2023-02-21T22:23:35.325Z,-23438.66
2023-02-21T22:25:38.142Z,-23438.34
2023-02-21T22:27:41.026Z,-23436.13
2023-02-21T22:29:43.772Z,-23433.91
2023-02-21T22:31:48.483Z,-23434.22
2023-02-21T22:33:51.238Z,-23432.63
2023-02-21T22:35:53.887Z,-23432.63
2023-02-21T22:38:01.909Z,-23430.56
2023-02-21T22:40:04.845Z,-23429.13
2023-02-21T22:42:09.201Z,-23425.47
2023-02-21T22:44:13.002Z,-23425.00
2023-02-21T22:46:15.826Z,-23423.72
2023-02-21T22:48:20.901Z,-23423.88
2023-02-21T22:50:24.767Z,-23420.88
2023-02-21T22:52:27.379Z,-23423.41
2023-02-21T22:54:31.712Z,-23425.97
2023-02-21T22:56:38.270Z,-23422.78
2023-02-21T22:58:41.303Z,-23418.97
2023-02-21T23:00:43.953Z,-23412.47
2023-02-21T23:02:47.541Z,-23412.13
2023-02-21T23:04:50.268Z,-23412.94
2023-02-21T23:06:53.741Z,-23414.69
2023-02-21T23:08:57.511Z,-23414.22
2023-02-21T23:11:01.596Z,-23413.56
2023-02-21T23:13:04.184Z,-23412.47
2023-02-21T23:15:08.032Z,-23412.94
2023-02-21T23:17:10.612Z,-23414.38
2023-02-21T23:19:13.554Z,-23412.94
2023-02-21T23:21:22.893Z,-23414.69
2023-02-21T23:23:27.478Z,-23413.88
2023-02-21T23:25:35.145Z,-23414.38
2023-02-21T23:27:39.204Z,-23414.84
2023-02-21T23:29:41.906Z,-23416.44
2023-02-21T23:31:44.658Z,-23415.47
2023-02-21T23:33:48.659Z,-23415.78
2023-02-21T23:35:52.717Z,-23415.16
2023-02-21T23:37:55.355Z,-23415.31
2023-02-21T23:39:58.034Z,-23414.53
2023-02-21T23:42:00.811Z,-23417.06
2023-02-21T23:44:05.135Z,-23414.53
2023-02-21T23:46:08.930Z,-23413.72
2023-02-21T23:48:15.638Z,-23410.06
2023-02-21T23:50:20.222Z,-23410.41
2023-02-21T23:52:22.840Z,-23407.84
2023-02-21T23:54:25.992Z,-23405.16
2023-02-21T23:56:28.629Z,-23406.91
2023-02-21T23:58:32.404Z,-23412.13
